sensor_id;sensor_type;location;lat;lon;timestamp;P1;durP1;ratioP1;P2;durP2;ratioP2
2129;SDS011;1071;52.544;13.374;2023-02-13T00:01:39;18.80;;;13.20;;
2129;SDS011;1071;52.544;13.374;2023-02-13T00:04:07;20.73;;;12.60;;
2129;SDS011;1071;52.544;13.374;2023-02-13T00:06:34;17.35;;;11.95;;
2129;SDS011;1071;52.544;13.374;2023-02-13T00:09:02;15.95;;;11.95;;
2129;SDS011;1071;52.544;13.374;2023-02-13T00:11:35;18.60;;;11.82;;
2129;SDS011;1071;52.544;13.374;2023-02-13T00:14:02;14.02;;;10.65;;
2129;SDS011;1071;52.544;13.374;2023-02-13T00:16:29;12.15;;;10.60;;
2129;SDS011;1071;52.544;13.374;2023-02-13T00:19:00;12.30;;;9.57;;
2129;SDS011;1071;52.544;13.374;2023-02-13T00:21:27;16.00;;;8.88;;
2129;SDS011;1071;52.544;13.374;2023-02-13T00:23:57;9.23;;;7.60;;
2129;SDS011;1071;52.544;13.374;2023-02-13T00:26:24;14.88;;;10.23;;
2129;SDS011;1071;52.544;13.374;2023-02-13T00:28:51;10.73;;;7.57;;
2129;SDS011;1071;52.544;13.374;2023-02-13T00:31:19;10.82;;;7.55;;
2129;SDS011;1071;52.544;13.374;2023-02-13T00:33:47;10.10;;;8.40;;
2129;SDS011;1071;52.544;13.374;2023-02-13T00:36:16;13.02;;;8.02;;
2129;SDS011;1071;52.544;13.374;2023-02-13T00:38:45;12.27;;;7.22;;
2129;SDS011;1071;52.544;13.374;2023-02-13T00:41:13;9.63;;;8.02;;
2129;SDS011;1071;52.544;13.374;2023-02-13T00:43:41;14.32;;;8.25;;
2129;SDS011;1071;52.544;13.374;2023-02-13T00:46:11;9.32;;;6.93;;
2129;SDS011;1071;52.544;13.374;2023-02-13T00:48:39;9.50;;;6.22;;
2129;SDS011;1071;52.544;13.374;2023-02-13T00:51:06;7.50;;;5.57;;
2129;SDS011;1071;52.544;13.374;2023-02-13T00:53:35;8.23;;;5.60;;
2129;SDS011;1071;52.544;13.374;2023-02-13T00:56:04;5.82;;;5.18;;
2129;SDS011;1071;52.544;13.374;2023-02-13T00:58:31;6.28;;;5.20;;
2129;SDS011;1071;52.544;13.374;2023-02-13T01:00:59;6.97;;;5.13;;
2129;SDS011;1071;52.544;13.374;2023-02-13T01:03:26;5.75;;;5.03;;
2129;SDS011;1071;52.544;13.374;2023-02-13T01:05:54;7.53;;;4.70;;
2129;SDS011;1071;52.544;13.374;2023-02-13T01:08:22;8.02;;;4.35;;
2129;SDS011;1071;52.544;13.374;2023-02-13T01:10:53;5.57;;;4.43;;
2129;SDS011;1071;52.544;13.374;2023-02-13T01:13:20;5.93;;;4.40;;
2129;SDS011;1071;52.544;13.374;2023-02-13T01:15:48;7.82;;;4.38;;
2129;SDS011;1071;52.544;13.374;2023-02-13T01:18:16;5.93;;;4.43;;
2129;SDS011;1071;52.544;13.374;2023-02-13T01:20:45;5.18;;;3.95;;
2129;SDS011;1071;52.544;13.374;2023-02-13T01:23:21;4.78;;;3.80;;
2129;SDS011;1071;52.544;13.374;2023-02-13T01:25:58;3.72;;;3.13;;
2129;SDS011;1071;52.544;13.374;2023-02-13T01:28:28;5.35;;;3.67;;
2129;SDS011;1071;52.544;13.374;2023-02-13T01:30:56;4.50;;;4.10;;
2129;SDS011;1071;52.544;13.374;2023-02-13T01:33:26;4.30;;;3.60;;
2129;SDS011;1071;52.544;13.374;2023-02-13T01:35:56;3.80;;;3.45;;
2129;SDS011;1071;52.544;13.374;2023-02-13T01:38:24;5.90;;;3.80;;
2129;SDS011;1071;52.544;13.374;2023-02-13T01:40:52;4.65;;;2.88;;
2129;SDS011;1071;52.544;13.374;2023-02-13T01:43:20;3.58;;;3.25;;
2129;SDS011;1071;52.544;13.374;2023-02-13T01:45:48;4.03;;;2.75;;
2129;SDS011;1071;52.544;13.374;2023-02-13T01:48:18;3.92;;;3.63;;
2129;SDS011;1071;52.544;13.374;2023-02-13T01:50:50;4.45;;;3.40;;
2129;SDS011;1071;52.544;13.374;2023-02-13T01:53:21;3.50;;;3.20;;
2129;SDS011;1071;52.544;13.374;2023-02-13T01:55:53;2.80;;;2.55;;
2129;SDS011;1071;52.544;13.374;2023-02-13T01:58:25;4.13;;;2.75;;
2129;SDS011;1071;52.544;13.374;2023-02-13T02:00:56;3.88;;;2.30;;
2129;SDS011;1071;52.544;13.374;2023-02-13T02:03:25;3.13;;;2.38;;
2129;SDS011;1071;52.544;13.374;2023-02-13T02:05:56;4.30;;;2.58;;
2129;SDS011;1071;52.544;13.374;2023-02-13T02:08:25;5.40;;;3.08;;
2129;SDS011;1071;52.544;13.374;2023-02-13T02:10:52;2.80;;;2.60;;
2129;SDS011;1071;52.544;13.374;2023-02-13T02:13:21;4.22;;;2.75;;
2129;SDS011;1071;52.544;13.374;2023-02-13T02:15:49;3.85;;;2.60;;
2129;SDS011;1071;52.544;13.374;2023-02-13T02:18:18;2.72;;;2.50;;
2129;SDS011;1071;52.544;13.374;2023-02-13T02:20:59;4.07;;;2.53;;
2129;SDS011;1071;52.544;13.374;2023-02-13T02:24:01;3.58;;;2.95;;
2129;SDS011;1071;52.544;13.374;2023-02-13T02:27:04;3.20;;;2.70;;
2129;SDS011;1071;52.544;13.374;2023-02-13T02:33:03;3.50;;;3.05;;
2129;SDS011;1071;52.544;13.374;2023-02-13T02:35:42;4.05;;;3.65;;
2129;SDS011;1071;52.544;13.374;2023-02-13T02:38:20;4.70;;;3.55;;
2129;SDS011;1071;52.544;13.374;2023-02-13T02:41:03;3.70;;;3.40;;
2129;SDS011;1071;52.544;13.374;2023-02-13T02:43:39;4.68;;;3.88;;
2129;SDS011;1071;52.544;13.374;2023-02-13T02:46:17;4.53;;;4.13;;
2129;SDS011;1071;52.544;13.374;2023-02-13T02:49:12;4.82;;;3.60;;
2129;SDS011;1071;52.544;13.374;2023-02-13T02:52:18;6.38;;;4.10;;
2129;SDS011;1071;52.544;13.374;2023-02-13T02:54:52;5.72;;;4.40;;
2129;SDS011;1071;52.544;13.374;2023-02-13T02:57:33;4.30;;;3.90;;
2129;SDS011;1071;52.544;13.374;2023-02-13T03:00:16;4.30;;;3.67;;
2129;SDS011;1071;52.544;13.374;2023-02-13T03:03:03;4.57;;;4.10;;
2129;SDS011;1071;52.544;13.374;2023-02-13T03:05:52;4.15;;;3.75;;
2129;SDS011;1071;52.544;13.374;2023-02-13T03:08:37;5.30;;;4.80;;
2129;SDS011;1071;52.544;13.374;2023-02-13T03:11:23;5.68;;;4.38;;
2129;SDS011;1071;52.544;13.374;2023-02-13T03:14:09;6.03;;;4.20;;
2129;SDS011;1071;52.544;13.374;2023-02-13T03:16:38;6.45;;;5.32;;
2129;SDS011;1071;52.544;13.374;2023-02-13T03:19:27;6.22;;;4.97;;
2129;SDS011;1071;52.544;13.374;2023-02-13T03:22:23;6.82;;;4.97;;
2129;SDS011;1071;52.544;13.374;2023-02-13T03:25:00;7.18;;;5.00;;
2129;SDS011;1071;52.544;13.374;2023-02-13T03:27:38;5.63;;;4.97;;
2129;SDS011;1071;52.544;13.374;2023-02-13T03:30:29;4.85;;;4.35;;
2129;SDS011;1071;52.544;13.374;2023-02-13T03:33:08;4.55;;;4.13;;
2129;SDS011;1071;52.544;13.374;2023-02-13T03:35:46;4.85;;;4.32;;
2129;SDS011;1071;52.544;13.374;2023-02-13T03:38:39;6.05;;;5.07;;
2129;SDS011;1071;52.544;13.374;2023-02-13T03:41:12;8.13;;;5.43;;
2129;SDS011;1071;52.544;13.374;2023-02-13T03:43:44;6.22;;;5.47;;
2129;SDS011;1071;52.544;13.374;2023-02-13T03:46:25;6.43;;;5.43;;
2129;SDS011;1071;52.544;13.374;2023-02-13T03:48:54;5.43;;;4.93;;
2129;SDS011;1071;52.544;13.374;2023-02-13T03:51:41;6.40;;;5.28;;
2129;SDS011;1071;52.544;13.374;2023-02-13T03:54:15;9.27;;;5.63;;
2129;SDS011;1071;52.544;13.374;2023-02-13T03:56:48;8.77;;;6.47;;
2129;SDS011;1071;52.544;13.374;2023-02-13T03:59:34;6.28;;;5.63;;
2129;SDS011;1071;52.544;13.374;2023-02-13T04:02:04;6.85;;;6.25;;
2129;SDS011;1071;52.544;13.374;2023-02-13T04:04:39;6.10;;;5.50;;
2129;SDS011;1071;52.544;13.374;2023-02-13T04:07:12;10.45;;;7.25;;
2129;SDS011;1071;52.544;13.374;2023-02-13T04:09:54;10.68;;;6.50;;
2129;SDS011;1071;52.544;13.374;2023-02-13T04:12:24;8.43;;;6.45;;
2129;SDS011;1071;52.544;13.374;2023-02-13T04:14:59;7.82;;;6.32;;
2129;SDS011;1071;52.544;13.374;2023-02-13T04:17:31;8.30;;;6.82;;
2129;SDS011;1071;52.544;13.374;2023-02-13T04:20:01;9.57;;;7.38;;
2129;SDS011;1071;52.544;13.374;2023-02-13T04:22:29;8.82;;;7.93;;
2129;SDS011;1071;52.544;13.374;2023-02-13T04:24:57;8.25;;;7.30;;
2129;SDS011;1071;52.544;13.374;2023-02-13T04:27:27;7.72;;;6.47;;
2129;SDS011;1071;52.544;13.374;2023-02-13T04:29:54;11.85;;;8.27;;
2129;SDS011;1071;52.544;13.374;2023-02-13T04:32:21;8.88;;;7.75;;
2129;SDS011;1071;52.544;13.374;2023-02-13T04:34:48;8.35;;;7.55;;
2129;SDS011;1071;52.544;13.374;2023-02-13T04:37:15;16.85;;;8.38;;
2129;SDS011;1071;52.544;13.374;2023-02-13T04:39:42;9.90;;;7.50;;
2129;SDS011;1071;52.544;13.374;2023-02-13T04:42:10;10.45;;;9.35;;
2129;SDS011;1071;52.544;13.374;2023-02-13T04:44:37;10.48;;;9.35;;
2129;SDS011;1071;52.544;13.374;2023-02-13T04:47:04;12.15;;;8.63;;
2129;SDS011;1071;52.544;13.374;2023-02-13T04:49:31;12.98;;;10.93;;
2129;SDS011;1071;52.544;13.374;2023-02-13T04:51:58;10.35;;;9.18;;
2129;SDS011;1071;52.544;13.374;2023-02-13T04:54:25;10.98;;;9.75;;
2129;SDS011;1071;52.544;13.374;2023-02-13T04:56:52;9.57;;;8.27;;
2129;SDS011;1071;52.544;13.374;2023-02-13T04:59:21;10.40;;;8.80;;
2129;SDS011;1071;52.544;13.374;2023-02-13T05:01:48;10.88;;;8.52;;
2129;SDS011;1071;52.544;13.374;2023-02-13T05:04:15;11.65;;;9.68;;
2129;SDS011;1071;52.544;13.374;2023-02-13T05:06:42;11.57;;;10.40;;
2129;SDS011;1071;52.544;13.374;2023-02-13T05:09:09;11.75;;;9.27;;
2129;SDS011;1071;52.544;13.374;2023-02-13T05:11:37;14.85;;;10.45;;
2129;SDS011;1071;52.544;13.374;2023-02-13T05:14:04;14.02;;;9.63;;
2129;SDS011;1071;52.544;13.374;2023-02-13T05:16:32;12.63;;;9.93;;
2129;SDS011;1071;52.544;13.374;2023-02-13T05:19:10;12.10;;;9.32;;
2129;SDS011;1071;52.544;13.374;2023-02-13T05:21:37;11.25;;;9.20;;
2129;SDS011;1071;52.544;13.374;2023-02-13T05:24:21;10.25;;;8.82;;
2129;SDS011;1071;52.544;13.374;2023-02-13T05:26:48;9.80;;;8.43;;
2129;SDS011;1071;52.544;13.374;2023-02-13T05:29:15;11.85;;;9.77;;
2129;SDS011;1071;52.544;13.374;2023-02-13T05:31:48;10.55;;;8.55;;
2129;SDS011;1071;52.544;13.374;2023-02-13T05:34:16;10.95;;;9.35;;
2129;SDS011;1071;52.544;13.374;2023-02-13T05:36:43;9.45;;;7.75;;
2129;SDS011;1071;52.544;13.374;2023-02-13T05:39:11;8.88;;;7.95;;
2129;SDS011;1071;52.544;13.374;2023-02-13T05:41:39;10.05;;;7.43;;
2129;SDS011;1071;52.544;13.374;2023-02-13T05:44:06;9.38;;;7.40;;
2129;SDS011;1071;52.544;13.374;2023-02-13T05:46:35;7.88;;;6.93;;
2129;SDS011;1071;52.544;13.374;2023-02-13T05:49:05;9.20;;;7.97;;
2129;SDS011;1071;52.544;13.374;2023-02-13T05:51:33;10.57;;;9.05;;
2129;SDS011;1071;52.544;13.374;2023-02-13T05:54:00;8.80;;;7.03;;
2129;SDS011;1071;52.544;13.374;2023-02-13T05:56:27;7.57;;;6.55;;
2129;SDS011;1071;52.544;13.374;2023-02-13T05:58:54;8.00;;;7.10;;
2129;SDS011;1071;52.544;13.374;2023-02-13T06:01:22;8.32;;;7.22;;
2129;SDS011;1071;52.544;13.374;2023-02-13T06:03:51;11.35;;;7.95;;
2129;SDS011;1071;52.544;13.374;2023-02-13T06:06:20;9.48;;;8.02;;
2129;SDS011;1071;52.544;13.374;2023-02-13T06:08:47;9.25;;;8.25;;
2129;SDS011;1071;52.544;13.374;2023-02-13T06:11:14;7.97;;;6.90;;
2129;SDS011;1071;52.544;13.374;2023-02-13T06:13:41;8.35;;;6.90;;
2129;SDS011;1071;52.544;13.374;2023-02-13T06:16:08;7.85;;;6.85;;
2129;SDS011;1071;52.544;13.374;2023-02-13T06:18:37;7.65;;;6.47;;
2129;SDS011;1071;52.544;13.374;2023-02-13T06:21:04;7.28;;;6.20;;
2129;SDS011;1071;52.544;13.374;2023-02-13T06:23:33;7.68;;;6.97;;
2129;SDS011;1071;52.544;13.374;2023-02-13T06:26:01;8.10;;;7.30;;
2129;SDS011;1071;52.544;13.374;2023-02-13T06:28:29;6.47;;;5.88;;
2129;SDS011;1071;52.544;13.374;2023-02-13T06:30:58;6.38;;;5.68;;
2129;SDS011;1071;52.544;13.374;2023-02-13T06:33:25;7.38;;;6.00;;
2129;SDS011;1071;52.544;13.374;2023-02-13T06:35:55;7.10;;;6.00;;
2129;SDS011;1071;52.544;13.374;2023-02-13T06:38:22;7.32;;;6.22;;
2129;SDS011;1071;52.544;13.374;2023-02-13T06:40:50;6.57;;;5.88;;
2129;SDS011;1071;52.544;13.374;2023-02-13T06:43:17;6.40;;;5.80;;
2129;SDS011;1071;52.544;13.374;2023-02-13T06:45:44;7.25;;;6.55;;
2129;SDS011;1071;52.544;13.374;2023-02-13T06:48:12;8.75;;;6.78;;
2129;SDS011;1071;52.544;13.374;2023-02-13T06:50:50;7.05;;;6.38;;
2129;SDS011;1071;52.544;13.374;2023-02-13T06:53:17;8.38;;;6.68;;
2129;SDS011;1071;52.544;13.374;2023-02-13T06:55:50;7.20;;;6.05;;
2129;SDS011;1071;52.544;13.374;2023-02-13T06:58:23;7.38;;;6.47;;
2129;SDS011;1071;52.544;13.374;2023-02-13T07:00:51;7.53;;;6.25;;
2129;SDS011;1071;52.544;13.374;2023-02-13T07:03:19;6.60;;;6.05;;
2129;SDS011;1071;52.544;13.374;2023-02-13T07:05:49;6.85;;;6.15;;
2129;SDS011;1071;52.544;13.374;2023-02-13T07:08:19;7.15;;;6.45;;
2129;SDS011;1071;52.544;13.374;2023-02-13T07:10:46;7.43;;;6.55;;
2129;SDS011;1071;52.544;13.374;2023-02-13T07:13:14;6.95;;;6.25;;
2129;SDS011;1071;52.544;13.374;2023-02-13T07:15:41;7.13;;;6.40;;
2129;SDS011;1071;52.544;13.374;2023-02-13T07:18:09;8.10;;;6.57;;
2129;SDS011;1071;52.544;13.374;2023-02-13T07:20:36;5.78;;;5.28;;
2129;SDS011;1071;52.544;13.374;2023-02-13T07:23:03;7.35;;;6.53;;
2129;SDS011;1071;52.544;13.374;2023-02-13T07:25:31;5.97;;;5.47;;
2129;SDS011;1071;52.544;13.374;2023-02-13T07:28:02;8.30;;;7.47;;
2129;SDS011;1071;52.544;13.374;2023-02-13T07:30:31;6.03;;;5.45;;
2129;SDS011;1071;52.544;13.374;2023-02-13T07:32:59;6.82;;;6.10;;
2129;SDS011;1071;52.544;13.374;2023-02-13T07:35:27;6.15;;;5.55;;
2129;SDS011;1071;52.544;13.374;2023-02-13T07:37:54;7.85;;;7.05;;
2129;SDS011;1071;52.544;13.374;2023-02-13T07:40:24;7.20;;;6.50;;
2129;SDS011;1071;52.544;13.374;2023-02-13T07:42:51;7.60;;;6.75;;
2129;SDS011;1071;52.544;13.374;2023-02-13T07:45:18;7.43;;;6.63;;
2129;SDS011;1071;52.544;13.374;2023-02-13T07:47:46;8.77;;;7.07;;
2129;SDS011;1071;52.544;13.374;2023-02-13T07:50:14;10.60;;;8.48;;
2129;SDS011;1071;52.544;13.374;2023-02-13T07:52:42;11.85;;;9.32;;
2129;SDS011;1071;52.544;13.374;2023-02-13T07:55:09;11.18;;;9.25;;
2129;SDS011;1071;52.544;13.374;2023-02-13T07:57:36;8.10;;;7.30;;
2129;SDS011;1071;52.544;13.374;2023-02-13T08:00:04;10.52;;;8.93;;
2129;SDS011;1071;52.544;13.374;2023-02-13T08:02:31;10.32;;;9.15;;
2129;SDS011;1071;52.544;13.374;2023-02-13T08:05:00;9.50;;;8.50;;
2129;SDS011;1071;52.544;13.374;2023-02-13T08:07:31;9.13;;;8.02;;
2129;SDS011;1071;52.544;13.374;2023-02-13T08:10:01;7.43;;;6.70;;
2129;SDS011;1071;52.544;13.374;2023-02-13T08:12:46;6.97;;;5.75;;
2129;SDS011;1071;52.544;13.374;2023-02-13T08:15:13;7.53;;;6.10;;
2129;SDS011;1071;52.544;13.374;2023-02-13T08:17:41;9.00;;;8.10;;
2129;SDS011;1071;52.544;13.374;2023-02-13T08:20:10;8.02;;;7.25;;
2129;SDS011;1071;52.544;13.374;2023-02-13T08:22:40;8.57;;;6.95;;
2129;SDS011;1071;52.544;13.374;2023-02-13T08:25:12;9.00;;;7.25;;
2129;SDS011;1071;52.544;13.374;2023-02-13T08:27:42;7.05;;;6.20;;
2129;SDS011;1071;52.544;13.374;2023-02-13T08:30:10;7.75;;;6.45;;
2129;SDS011;1071;52.544;13.374;2023-02-13T08:32:39;8.13;;;7.22;;
2129;SDS011;1071;52.544;13.374;2023-02-13T08:35:10;7.40;;;6.28;;
2129;SDS011;1071;52.544;13.374;2023-02-13T08:37:37;14.43;;;7.68;;
2129;SDS011;1071;52.544;13.374;2023-02-13T08:40:05;6.65;;;5.78;;
2129;SDS011;1071;52.544;13.374;2023-02-13T08:42:34;7.88;;;6.80;;
2129;SDS011;1071;52.544;13.374;2023-02-13T08:45:04;8.18;;;6.72;;
2129;SDS011;1071;52.544;13.374;2023-02-13T08:47:31;7.90;;;6.95;;
2129;SDS011;1071;52.544;13.374;2023-02-13T08:49:58;7.20;;;6.57;;
2129;SDS011;1071;52.544;13.374;2023-02-13T08:52:27;6.95;;;6.20;;
2129;SDS011;1071;52.544;13.374;2023-02-13T08:54:54;7.43;;;6.72;;
2129;SDS011;1071;52.544;13.374;2023-02-13T08:57:21;7.28;;;5.88;;
2129;SDS011;1071;52.544;13.374;2023-02-13T08:59:51;8.13;;;6.97;;
2129;SDS011;1071;52.544;13.374;2023-02-13T09:02:18;7.25;;;6.55;;
2129;SDS011;1071;52.544;13.374;2023-02-13T09:04:45;9.07;;;7.07;;
2129;SDS011;1071;52.544;13.374;2023-02-13T09:07:12;8.63;;;7.30;;
2129;SDS011;1071;52.544;13.374;2023-02-13T09:09:40;9.70;;;6.90;;
2129;SDS011;1071;52.544;13.374;2023-02-13T09:12:07;9.20;;;6.95;;
2129;SDS011;1071;52.544;13.374;2023-02-13T09:14:34;9.15;;;7.28;;
2129;SDS011;1071;52.544;13.374;2023-02-13T09:17:06;9.35;;;7.45;;
2129;SDS011;1071;52.544;13.374;2023-02-13T09:19:33;7.07;;;6.38;;
2129;SDS011;1071;52.544;13.374;2023-02-13T09:22:04;7.53;;;6.53;;
2129;SDS011;1071;52.544;13.374;2023-02-13T09:24:31;10.10;;;6.90;;
2129;SDS011;1071;52.544;13.374;2023-02-13T09:27:00;7.07;;;6.20;;
2129;SDS011;1071;52.544;13.374;2023-02-13T09:29:34;10.52;;;9.02;;
2129;SDS011;1071;52.544;13.374;2023-02-13T09:32:01;8.02;;;7.18;;
2129;SDS011;1071;52.544;13.374;2023-02-13T09:34:30;8.55;;;7.07;;
2129;SDS011;1071;52.544;13.374;2023-02-13T09:36:57;8.30;;;7.47;;
2129;SDS011;1071;52.544;13.374;2023-02-13T09:39:24;8.35;;;6.82;;
2129;SDS011;1071;52.544;13.374;2023-02-13T09:41:51;10.63;;;6.88;;
2129;SDS011;1071;52.544;13.374;2023-02-13T09:44:23;12.18;;;8.27;;
2129;SDS011;1071;52.544;13.374;2023-02-13T09:47:04;8.40;;;6.78;;
2129;SDS011;1071;52.544;13.374;2023-02-13T09:49:39;10.88;;;8.25;;
2129;SDS011;1071;52.544;13.374;2023-02-13T09:52:09;11.20;;;8.52;;
2129;SDS011;1071;52.544;13.374;2023-02-13T09:54:36;11.70;;;9.63;;
2129;SDS011;1071;52.544;13.374;2023-02-13T09:57:06;8.27;;;7.47;;
2129;SDS011;1071;52.544;13.374;2023-02-13T09:59:47;8.73;;;7.80;;
2129;SDS011;1071;52.544;13.374;2023-02-13T10:02:25;12.40;;;9.80;;
2129;SDS011;1071;52.544;13.374;2023-02-13T10:05:05;9.52;;;8.05;;
2129;SDS011;1071;52.544;13.374;2023-02-13T10:07:43;10.73;;;9.00;;
2129;SDS011;1071;52.544;13.374;2023-02-13T10:10:21;11.65;;;9.60;;
2129;SDS011;1071;52.544;13.374;2023-02-13T10:12:57;12.02;;;10.05;;
2129;SDS011;1071;52.544;13.374;2023-02-13T10:15:46;13.30;;;8.80;;
2129;SDS011;1071;52.544;13.374;2023-02-13T10:18:18;13.27;;;10.32;;
2129;SDS011;1071;52.544;13.374;2023-02-13T10:20:49;11.15;;;9.52;;
2129;SDS011;1071;52.544;13.374;2023-02-13T10:23:20;11.30;;;8.77;;
2129;SDS011;1071;52.544;13.374;2023-02-13T10:25:53;16.05;;;9.80;;
2129;SDS011;1071;52.544;13.374;2023-02-13T10:28:28;11.88;;;10.07;;
2129;SDS011;1071;52.544;13.374;2023-02-13T10:31:03;12.15;;;9.48;;
2129;SDS011;1071;52.544;13.374;2023-02-13T10:33:33;13.05;;;9.45;;
2129;SDS011;1071;52.544;13.374;2023-02-13T10:36:10;10.60;;;9.45;;
2129;SDS011;1071;52.544;13.374;2023-02-13T10:38:42;12.20;;;9.93;;
2129;SDS011;1071;52.544;13.374;2023-02-13T10:41:20;10.65;;;9.05;;
2129;SDS011;1071;52.544;13.374;2023-02-13T10:43:54;8.48;;;7.63;;
2129;SDS011;1071;52.544;13.374;2023-02-13T10:46:35;12.93;;;10.07;;
2129;SDS011;1071;52.544;13.374;2023-02-13T10:49:21;11.88;;;10.38;;
2129;SDS011;1071;52.544;13.374;2023-02-13T10:52:14;10.30;;;9.18;;
2129;SDS011;1071;52.544;13.374;2023-02-13T10:54:55;12.40;;;10.70;;
2129;SDS011;1071;52.544;13.374;2023-02-13T10:57:38;9.60;;;8.63;;
2129;SDS011;1071;52.544;13.374;2023-02-13T11:00:23;9.13;;;7.75;;
2129;SDS011;1071;52.544;13.374;2023-02-13T11:03:07;14.18;;;10.45;;
2129;SDS011;1071;52.544;13.374;2023-02-13T11:05:44;13.80;;;10.90;;
2129;SDS011;1071;52.544;13.374;2023-02-13T11:08:14;12.65;;;10.02;;
2129;SDS011;1071;52.544;13.374;2023-02-13T11:10:45;12.77;;;9.63;;
2129;SDS011;1071;52.544;13.374;2023-02-13T11:13:16;14.82;;;10.35;;
2129;SDS011;1071;52.544;13.374;2023-02-13T11:15:55;12.32;;;10.32;;
2129;SDS011;1071;52.544;13.374;2023-02-13T11:18:25;15.20;;;11.63;;
2129;SDS011;1071;52.544;13.374;2023-02-13T11:20:57;10.90;;;9.43;;
2129;SDS011;1071;52.544;13.374;2023-02-13T11:23:39;19.17;;;11.30;;
2129;SDS011;1071;52.544;13.374;2023-02-13T11:26:13;14.23;;;10.63;;
2129;SDS011;1071;52.544;13.374;2023-02-13T11:28:48;13.55;;;11.40;;
2129;SDS011;1071;52.544;13.374;2023-02-13T11:31:23;17.05;;;12.05;;
2129;SDS011;1071;52.544;13.374;2023-02-13T11:33:53;14.07;;;11.25;;
2129;SDS011;1071;52.544;13.374;2023-02-13T11:36:23;16.42;;;13.30;;
2129;SDS011;1071;52.544;13.374;2023-02-13T11:38:59;17.33;;;12.15;;
2129;SDS011;1071;52.544;13.374;2023-02-13T11:41:38;15.80;;;12.40;;
2129;SDS011;1071;52.544;13.374;2023-02-13T11:44:18;15.05;;;11.48;;
2129;SDS011;1071;52.544;13.374;2023-02-13T11:46:50;15.82;;;13.40;;
2129;SDS011;1071;52.544;13.374;2023-02-13T11:49:20;13.85;;;12.35;;
2129;SDS011;1071;52.544;13.374;2023-02-13T11:51:49;13.90;;;11.23;;
2129;SDS011;1071;52.544;13.374;2023-02-13T11:54:22;16.48;;;12.50;;
2129;SDS011;1071;52.544;13.374;2023-02-13T11:56:53;14.50;;;12.20;;
2129;SDS011;1071;52.544;13.374;2023-02-13T11:59:21;14.75;;;11.68;;
2129;SDS011;1071;52.544;13.374;2023-02-13T12:02:08;16.20;;;13.70;;
2129;SDS011;1071;52.544;13.374;2023-02-13T12:04:41;13.90;;;11.13;;
2129;SDS011;1071;52.544;13.374;2023-02-13T12:07:12;15.20;;;11.95;;
2129;SDS011;1071;52.544;13.374;2023-02-13T12:09:43;14.90;;;11.48;;
2129;SDS011;1071;52.544;13.374;2023-02-13T12:12:17;16.05;;;11.57;;
2129;SDS011;1071;52.544;13.374;2023-02-13T12:14:48;20.42;;;15.93;;
2129;SDS011;1071;52.544;13.374;2023-02-13T12:17:16;18.52;;;14.88;;
2129;SDS011;1071;52.544;13.374;2023-02-13T12:19:49;18.20;;;14.05;;
2129;SDS011;1071;52.544;13.374;2023-02-13T12:22:24;16.23;;;13.00;;
2129;SDS011;1071;52.544;13.374;2023-02-13T12:28:27;16.42;;;13.32;;
2129;SDS011;1071;52.544;13.374;2023-02-13T12:34:00;19.45;;;12.38;;
2129;SDS011;1071;52.544;13.374;2023-02-13T12:36:50;17.02;;;14.50;;
2129;SDS011;1071;52.544;13.374;2023-02-13T12:39:24;16.92;;;12.50;;
2129;SDS011;1071;52.544;13.374;2023-02-13T12:42:04;16.63;;;12.82;;
2129;SDS011;1071;52.544;13.374;2023-02-13T12:44:45;15.90;;;12.88;;
2129;SDS011;1071;52.544;13.374;2023-02-13T12:47:25;19.08;;;12.52;;
2129;SDS011;1071;52.544;13.374;2023-02-13T12:49:59;21.67;;;15.40;;
2129;SDS011;1071;52.544;13.374;2023-02-13T12:52:51;14.75;;;11.88;;
2129;SDS011;1071;52.544;13.374;2023-02-13T12:55:36;22.95;;;14.88;;
2129;SDS011;1071;52.544;13.374;2023-02-13T12:58:32;16.92;;;13.43;;
2129;SDS011;1071;52.544;13.374;2023-02-13T13:01:21;23.55;;;15.50;;
2129;SDS011;1071;52.544;13.374;2023-02-13T13:03:57;17.05;;;14.00;;
2129;SDS011;1071;52.544;13.374;2023-02-13T13:06:39;19.63;;;14.00;;
2129;SDS011;1071;52.544;13.374;2023-02-13T13:09:24;18.48;;;13.70;;
2129;SDS011;1071;52.544;13.374;2023-02-13T13:12:32;19.05;;;15.63;;
2129;SDS011;1071;52.544;13.374;2023-02-13T13:15:08;17.85;;;13.13;;
2129;SDS011;1071;52.544;13.374;2023-02-13T13:17:49;16.30;;;14.55;;
2129;SDS011;1071;52.544;13.374;2023-02-13T13:20:31;14.90;;;11.82;;
2129;SDS011;1071;52.544;13.374;2023-02-13T13:23:10;15.80;;;12.88;;
2129;SDS011;1071;52.544;13.374;2023-02-13T13:25:44;17.05;;;13.00;;
2129;SDS011;1071;52.544;13.374;2023-02-13T13:28:21;16.50;;;12.88;;
2129;SDS011;1071;52.544;13.374;2023-02-13T13:30:50;15.60;;;13.50;;
2129;SDS011;1071;52.544;13.374;2023-02-13T13:33:23;17.40;;;12.82;;
2129;SDS011;1071;52.544;13.374;2023-02-13T13:35:54;17.45;;;12.93;;
2129;SDS011;1071;52.544;13.374;2023-02-13T13:38:30;16.85;;;12.80;;
2129;SDS011;1071;52.544;13.374;2023-02-13T13:41:07;18.50;;;13.13;;
2129;SDS011;1071;52.544;13.374;2023-02-13T13:43:41;19.52;;;14.75;;
2129;SDS011;1071;52.544;13.374;2023-02-13T13:46:27;18.65;;;13.75;;
2129;SDS011;1071;52.544;13.374;2023-02-13T13:49:05;19.75;;;14.20;;
2129;SDS011;1071;52.544;13.374;2023-02-13T13:51:38;17.08;;;13.25;;
2129;SDS011;1071;52.544;13.374;2023-02-13T13:54:24;19.17;;;14.02;;
2129;SDS011;1071;52.544;13.374;2023-02-13T13:57:05;13.98;;;12.45;;
2129;SDS011;1071;52.544;13.374;2023-02-13T14:02:42;17.92;;;14.35;;
2129;SDS011;1071;52.544;13.374;2023-02-13T14:11:41;20.85;;;15.75;;
2129;SDS011;1071;52.544;13.374;2023-02-13T14:20:39;16.25;;;12.38;;
2129;SDS011;1071;52.544;13.374;2023-02-13T14:23:16;17.27;;;13.18;;
2129;SDS011;1071;52.544;13.374;2023-02-13T14:25:59;16.27;;;12.10;;
2129;SDS011;1071;52.544;13.374;2023-02-13T14:28:40;17.95;;;13.23;;
2129;SDS011;1071;52.544;13.374;2023-02-13T14:31:27;16.70;;;13.45;;
2129;SDS011;1071;52.544;13.374;2023-02-13T14:33:57;13.32;;;11.77;;
2129;SDS011;1071;52.544;13.374;2023-02-13T14:36:29;18.08;;;13.90;;
2129;SDS011;1071;52.544;13.374;2023-02-13T14:38:58;14.05;;;12.55;;
2129;SDS011;1071;52.544;13.374;2023-02-13T14:41:44;14.10;;;11.55;;
2129;SDS011;1071;52.544;13.374;2023-02-13T14:44:23;17.90;;;13.55;;
2129;SDS011;1071;52.544;13.374;2023-02-13T14:46:55;17.88;;;12.63;;
2129;SDS011;1071;52.544;13.374;2023-02-13T14:49:24;17.67;;;14.18;;
2129;SDS011;1071;52.544;13.374;2023-02-13T14:51:55;14.98;;;11.93;;
2129;SDS011;1071;52.544;13.374;2023-02-13T14:54:25;18.20;;;12.10;;
2129;SDS011;1071;52.544;13.374;2023-02-13T14:56:58;14.95;;;11.80;;
2129;SDS011;1071;52.544;13.374;2023-02-13T14:59:31;14.43;;;12.55;;
2129;SDS011;1071;52.544;13.374;2023-02-13T15:02:06;20.55;;;13.48;;
2129;SDS011;1071;52.544;13.374;2023-02-13T15:04:45;16.15;;;12.50;;
2129;SDS011;1071;52.544;13.374;2023-02-13T15:07:18;15.63;;;11.38;;
2129;SDS011;1071;52.544;13.374;2023-02-13T15:09:49;13.63;;;11.25;;
2129;SDS011;1071;52.544;13.374;2023-02-13T15:12:28;15.52;;;11.98;;
2129;SDS011;1071;52.544;13.374;2023-02-13T15:14:56;16.25;;;12.77;;
2129;SDS011;1071;52.544;13.374;2023-02-13T15:17:27;13.85;;;11.45;;
2129;SDS011;1071;52.544;13.374;2023-02-13T15:20:05;13.15;;;11.60;;
2129;SDS011;1071;52.544;13.374;2023-02-13T15:22:47;13.75;;;12.13;;
2129;SDS011;1071;52.544;13.374;2023-02-13T15:25:19;16.40;;;12.00;;
2129;SDS011;1071;52.544;13.374;2023-02-13T15:27:50;16.00;;;13.40;;
2129;SDS011;1071;52.544;13.374;2023-02-13T15:30:19;17.40;;;12.77;;
2129;SDS011;1071;52.544;13.374;2023-02-13T15:32:52;19.73;;;14.35;;
2129;SDS011;1071;52.544;13.374;2023-02-13T15:35:22;15.93;;;12.65;;
2129;SDS011;1071;52.544;13.374;2023-02-13T15:37:56;16.15;;;11.63;;
2129;SDS011;1071;52.544;13.374;2023-02-13T15:40:24;17.88;;;13.95;;
2129;SDS011;1071;52.544;13.374;2023-02-13T15:42:53;13.77;;;11.85;;
2129;SDS011;1071;52.544;13.374;2023-02-13T15:45:21;13.70;;;11.32;;
2129;SDS011;1071;52.544;13.374;2023-02-13T15:47:51;16.98;;;12.95;;
2129;SDS011;1071;52.544;13.374;2023-02-13T15:50:29;16.17;;;12.48;;